createdAt,value
2018-05-13T00:00:18.093Z,0.00
2018-05-13T00:01:18.111Z,0.00
2018-05-13T00:02:18.136Z,0.00
2018-05-13T00:03:18.168Z,0.00
2018-05-13T00:04:18.171Z,0.00
2018-05-13T00:05:18.198Z,0.00
2018-05-13T00:06:18.234Z,0.00
2018-05-13T00:07:18.282Z,0.00
2018-05-13T00:08:18.248Z,0.00
2018-05-13T00:09:18.276Z,0.00
2018-05-13T00:10:18.291Z,0.00
2018-05-13T00:11:18.356Z,0.00
2018-05-13T00:12:18.342Z,0.00
2018-05-13T00:13:18.382Z,0.00
2018-05-13T00:14:18.368Z,0.00
2018-05-13T00:15:18.400Z,0.00
2018-05-13T00:16:18.413Z,0.00
2018-05-13T00:17:18.468Z,0.00
2018-05-13T00:18:18.453Z,0.00
2018-05-13T00:19:18.482Z,0.00
2018-05-13T00:20:18.496Z,0.00
2018-05-13T00:21:18.515Z,0.00
2018-05-13T00:22:18.530Z,0.00
2018-05-13T00:23:18.574Z,0.00
2018-05-13T00:24:18.567Z,0.00
2018-05-13T00:25:18.594Z,0.00
2018-05-13T00:26:18.608Z,0.00
2018-05-13T00:27:18.693Z,0.00
2018-05-13T00:28:18.692Z,0.00
2018-05-13T00:29:18.702Z,0.00
2018-05-13T00:30:18.689Z,0.00
2018-05-13T00:31:18.721Z,0.00
2018-05-13T00:32:18.731Z,0.00
2018-05-13T00:33:18.756Z,0.00
2018-05-13T00:34:18.774Z,0.00
2018-05-13T00:35:18.785Z,0.00
2018-05-13T00:36:18.816Z,0.00
2018-05-13T00:37:18.828Z,0.00
2018-05-13T00:38:18.848Z,0.00
2018-05-13T00:39:18.869Z,0.00
2018-05-13T00:40:18.892Z,0.00
2018-05-13T00:41:18.997Z,0.00
2018-05-13T00:42:18.966Z,0.00
2018-05-13T00:43:18.949Z,0.00
2018-05-13T00:44:18.982Z,0.00
2018-05-13T00:45:19.003Z,0.00
2018-05-13T00:46:19.060Z,0.00
2018-05-13T00:47:19.030Z,0.00
2018-05-13T00:48:19.123Z,0.00
2018-05-13T00:49:19.071Z,0.00
2018-05-13T00:50:19.083Z,0.00
2018-05-13T00:51:19.176Z,0.00
2018-05-13T00:52:19.182Z,0.00
2018-05-13T00:53:19.142Z,0.00
2018-05-13T00:54:19.160Z,0.00
2018-05-13T00:55:19.182Z,0.00
2018-05-13T00:56:19.249Z,0.00
2018-05-13T00:57:19.222Z,0.00
2018-05-13T00:58:19.279Z,0.00
2018-05-13T00:59:19.259Z,0.00
2018-05-13T01:00:19.312Z,0.00
2018-05-13T01:01:19.310Z,0.00
2018-05-13T01:02:19.323Z,0.00
2018-05-13T01:03:19.336Z,0.00
2018-05-13T01:04:19.377Z,0.00
2018-05-13T01:05:19.377Z,0.00
2018-05-13T01:06:19.521Z,0.00
2018-05-13T01:07:19.414Z,0.00
2018-05-13T01:08:19.435Z,0.00
2018-05-13T01:09:19.453Z,0.00
2018-05-13T01:10:19.483Z,0.00
2018-05-13T01:11:19.554Z,0.00
2018-05-13T01:12:19.611Z,0.00
2018-05-13T01:13:19.536Z,0.00
2018-05-13T01:14:19.573Z,0.00
2018-05-13T01:15:19.665Z,0.00
2018-05-13T01:16:19.593Z,0.00
2018-05-13T01:17:19.612Z,0.00
2018-05-13T01:18:19.640Z,0.00
2018-05-13T01:19:19.683Z,0.00
2018-05-13T01:20:19.693Z,0.00
2018-05-13T01:21:19.691Z,0.00
2018-05-13T01:22:19.718Z,0.00
2018-05-13T01:23:19.814Z,0.00
2018-05-13T01:24:19.762Z,0.00
2018-05-13T01:25:19.770Z,0.00
2018-05-13T01:26:19.791Z,0.00
2018-05-13T01:27:19.879Z,0.00
2018-05-13T01:28:19.832Z,0.00
2018-05-13T01:29:19.846Z,0.00
2018-05-13T01:30:19.869Z,0.00
2018-05-13T01:31:19.883Z,0.00
2018-05-13T01:32:19.942Z,0.00
2018-05-13T01:33:19.929Z,0.00
2018-05-13T01:34:19.944Z,0.00
2018-05-13T01:35:19.963Z,0.00
2018-05-13T01:36:19.996Z,0.00
2018-05-13T01:37:20.004Z,0.00
2018-05-13T01:38:20.068Z,0.00
2018-05-13T01:39:20.039Z,0.00
2018-05-13T01:40:20.162Z,0.00
2018-05-13T01:41:20.086Z,0.00
2018-05-13T01:42:20.103Z,0.00
2018-05-13T01:43:20.121Z,0.00
2018-05-13T01:44:20.143Z,0.00
2018-05-13T01:45:20.189Z,0.00
2018-05-13T01:46:20.175Z,0.00
2018-05-13T01:47:20.202Z,0.00
2018-05-13T01:48:20.222Z,0.00
2018-05-13T01:49:20.265Z,0.00
2018-05-13T01:50:20.256Z,0.00
2018-05-13T01:51:20.283Z,0.00
2018-05-13T01:52:20.299Z,0.00
2018-05-13T01:53:20.313Z,0.00
2018-05-13T01:54:20.382Z,0.00
2018-05-13T01:55:20.361Z,0.00
2018-05-13T01:56:20.381Z,0.00
2018-05-13T01:57:20.391Z,0.00
2018-05-13T01:58:20.451Z,0.00
2018-05-13T01:59:20.430Z,0.00
2018-05-13T02:00:20.449Z,0.00
2018-05-13T02:01:20.475Z,0.00
2018-05-13T02:02:20.485Z,0.00
2018-05-13T02:03:20.516Z,0.00
2018-05-13T02:04:20.533Z,0.00
2018-05-13T02:05:20.546Z,0.00
2018-05-13T02:06:20.570Z,0.00
2018-05-13T02:07:20.588Z,0.00
2018-05-13T02:08:20.601Z,0.00
2018-05-13T02:09:20.624Z,0.00
2018-05-13T02:10:20.678Z,0.00
2018-05-13T02:11:20.669Z,0.00
2018-05-13T02:12:20.682Z,0.00
2018-05-13T02:13:20.702Z,0.00
2018-05-13T02:14:20.727Z,0.00
2018-05-13T02:15:20.743Z,0.00
2018-05-13T02:16:20.761Z,0.00
2018-05-13T02:17:20.777Z,0.00
2018-05-13T02:18:20.804Z,0.00
2018-05-13T02:19:20.822Z,0.00
2018-05-13T02:20:20.836Z,0.00
2018-05-13T02:21:20.855Z,0.00
2018-05-13T02:22:20.880Z,0.00
2018-05-13T02:23:20.913Z,0.00
2018-05-13T02:24:20.912Z,0.00
2018-05-13T02:25:20.932Z,0.00
2018-05-13T02:26:20.968Z,0.00
2018-05-13T02:27:20.979Z,0.00
2018-05-13T02:28:20.987Z,0.00
2018-05-13T02:29:21.014Z,0.00
2018-05-13T02:30:21.028Z,0.00
2018-05-13T02:31:21.047Z,0.00
2018-05-13T02:32:21.144Z,0.00
2018-05-13T02:33:21.107Z,0.00
2018-05-13T02:34:21.123Z,0.00
2018-05-13T02:35:21.135Z,0.00
2018-05-13T02:36:21.160Z,0.00
2018-05-13T02:37:21.223Z,0.00
2018-05-13T02:38:21.186Z,0.00
2018-05-13T02:39:21.279Z,0.00
2018-05-13T02:40:21.228Z,0.00
2018-05-13T02:41:21.262Z,0.00
2018-05-13T02:42:21.276Z,0.00
2018-05-13T02:43:21.365Z,0.00
2018-05-13T02:44:21.301Z,0.00
2018-05-13T02:45:21.346Z,0.00
2018-05-13T02:46:21.353Z,0.00
2018-05-13T02:47:21.398Z,0.00
2018-05-13T02:48:21.373Z,0.00
2018-05-13T02:49:21.401Z,0.00
2018-05-13T02:50:21.461Z,0.00
2018-05-13T02:51:21.433Z,0.00
2018-05-13T02:52:21.462Z,0.00
2018-05-13T02:53:21.493Z,0.00
2018-05-13T02:54:21.495Z,0.00
2018-05-13T02:55:21.508Z,0.00
2018-05-13T02:56:22.434Z,0.00
2018-05-13T02:57:21.673Z,0.00
2018-05-13T02:58:21.600Z,0.00
2018-05-13T02:59:21.633Z,0.00
2018-05-13T03:00:21.657Z,0.00
2018-05-13T03:01:21.848Z,0.00
2018-05-13T03:02:21.733Z,0.00
2018-05-13T03:03:21.672Z,0.00
2018-05-13T03:04:21.684Z,0.00
2018-05-13T03:05:21.728Z,0.00
2018-05-13T03:06:21.721Z,0.00
2018-05-13T03:07:21.814Z,0.00
2018-05-13T03:08:21.799Z,0.00
2018-05-13T03:09:21.784Z,0.00
2018-05-13T03:10:21.853Z,0.00
2018-05-13T03:11:21.890Z,0.00
2018-05-13T03:12:21.876Z,0.00
2018-05-13T03:13:21.861Z,0.00
2018-05-13T03:14:21.875Z,0.00
2018-05-13T03:15:21.932Z,0.00
2018-05-13T03:16:21.996Z,5.63
2018-05-13T03:17:21.935Z,5.63
2018-05-13T03:18:21.963Z,5.63
2018-05-13T03:19:21.973Z,5.63
2018-05-13T03:20:22.010Z,5.63
2018-05-13T03:21:22.054Z,5.63
2018-05-13T03:22:22.034Z,5.63
2018-05-13T03:23:22.073Z,11.25
2018-05-13T03:24:22.069Z,11.25
2018-05-13T03:25:22.119Z,11.25
2018-05-13T03:26:22.131Z,11.25
2018-05-13T03:27:22.124Z,11.25
2018-05-13T03:28:22.179Z,16.88
2018-05-13T03:29:22.250Z,16.88
2018-05-13T03:30:22.181Z,16.88
2018-05-13T03:31:22.199Z,16.88
2018-05-13T03:32:22.226Z,22.50
2018-05-13T03:33:22.246Z,22.50
2018-05-13T03:34:22.257Z,22.50
2018-05-13T03:35:22.350Z,22.50
2018-05-13T03:36:22.293Z,28.13
2018-05-13T03:37:22.316Z,28.13
2018-05-13T03:38:22.402Z,28.13
2018-05-13T03:39:22.353Z,33.75
2018-05-13T03:40:22.465Z,33.75
2018-05-13T03:41:22.485Z,39.38
2018-05-13T03:42:22.411Z,39.38
2018-05-13T03:43:22.428Z,45.00
2018-05-13T03:44:22.452Z,50.63
2018-05-13T03:45:22.476Z,50.63
2018-05-13T03:46:22.496Z,56.25
2018-05-13T03:47:22.574Z,56.25
2018-05-13T03:48:22.526Z,56.25
2018-05-13T03:49:22.666Z,61.88
2018-05-13T03:50:22.576Z,67.50
2018-05-13T03:51:22.663Z,67.50
2018-05-13T03:52:22.612Z,73.13
2018-05-13T03:53:22.622Z,78.75
2018-05-13T03:54:22.652Z,84.38
2018-05-13T03:55:22.667Z,90.00
2018-05-13T03:56:22.680Z,90.00
2018-05-13T03:57:22.705Z,95.63
2018-05-13T03:58:22.767Z,101.25
2018-05-13T03:59:22.736Z,106.88
2018-05-13T04:00:22.824Z,112.50
2018-05-13T04:01:22.868Z,118.13
2018-05-13T04:02:22.792Z,123.75
2018-05-13T04:03:22.841Z,129.38
2018-05-13T04:04:22.868Z,135.00
2018-05-13T04:05:22.855Z,135.00
2018-05-13T04:06:22.871Z,140.63
2018-05-13T04:07:22.996Z,140.63
2018-05-13T04:08:22.992Z,146.25
2018-05-13T04:09:22.931Z,151.88
2018-05-13T04:10:23.009Z,151.88
2018-05-13T04:11:22.985Z,157.50
2018-05-13T04:12:22.994Z,163.13
2018-05-13T04:13:23.021Z,163.13
2018-05-13T04:14:23.029Z,168.75
2018-05-13T04:15:23.053Z,174.38
2018-05-13T04:16:23.087Z,180.00
2018-05-13T04:17:23.084Z,185.63
2018-05-13T04:18:23.242Z,185.63
2018-05-13T04:19:23.125Z,191.25
2018-05-13T04:20:23.160Z,191.25
2018-05-13T04:21:23.165Z,196.88
2018-05-13T04:22:23.188Z,202.50
2018-05-13T04:23:23.214Z,208.13
2018-05-13T04:24:23.232Z,213.75
2018-05-13T04:25:23.307Z,219.38
2018-05-13T04:26:23.275Z,225.00
2018-05-13T04:27:23.306Z,230.63
2018-05-13T04:28:23.320Z,236.25
2018-05-13T04:29:23.320Z,241.88
2018-05-13T04:30:23.345Z,247.50
2018-05-13T04:31:23.360Z,247.50
2018-05-13T04:32:23.395Z,253.13
2018-05-13T04:33:23.403Z,258.75
2018-05-13T04:34:23.423Z,258.75
2018-05-13T04:35:23.451Z,264.38
2018-05-13T04:36:23.461Z,264.38
2018-05-13T04:37:23.480Z,264.38
2018-05-13T04:38:23.506Z,264.38
2018-05-13T04:39:23.525Z,264.38
2018-05-13T04:40:23.550Z,264.38
2018-05-13T04:41:23.570Z,264.38
2018-05-13T04:42:23.630Z,264.38
2018-05-13T04:43:23.619Z,264.38
2018-05-13T04:44:23.655Z,264.38
2018-05-13T04:45:23.668Z,264.38
2018-05-13T04:46:23.661Z,264.38
2018-05-13T04:47:23.779Z,270.00
2018-05-13T04:48:23.723Z,264.38
2018-05-13T04:49:23.880Z,253.13
2018-05-13T04:50:23.846Z,247.50
2018-05-13T04:51:23.765Z,236.25
2018-05-13T04:52:23.786Z,230.63
2018-05-13T04:53:23.808Z,236.25
2018-05-13T04:54:23.832Z,236.25
2018-05-13T04:55:23.955Z,241.88
2018-05-13T04:56:23.868Z,241.88
2018-05-13T04:57:23.922Z,247.50
2018-05-13T04:58:23.906Z,253.13
2018-05-13T04:59:23.929Z,253.13
2018-05-13T05:00:23.948Z,253.13
2018-05-13T05:01:23.969Z,253.13
2018-05-13T05:02:24.001Z,253.13
2018-05-13T05:03:24.008Z,258.75
2018-05-13T05:04:24.037Z,258.75
2018-05-13T05:05:24.055Z,264.38
2018-05-13T05:06:24.069Z,264.38
2018-05-13T05:07:24.140Z,275.63
2018-05-13T05:08:24.112Z,275.63
2018-05-13T05:09:24.130Z,281.25
2018-05-13T05:10:24.167Z,281.25
2018-05-13T05:11:24.239Z,281.25
2018-05-13T05:12:24.191Z,281.25
2018-05-13T05:13:24.216Z,286.88
2018-05-13T05:14:24.230Z,286.88
2018-05-13T05:15:24.259Z,292.50
2018-05-13T05:16:24.346Z,292.50
2018-05-13T05:17:24.300Z,292.50
2018-05-13T05:18:24.314Z,292.50
2018-05-13T05:19:24.332Z,286.88
2018-05-13T05:20:24.402Z,286.88
2018-05-13T05:21:24.376Z,292.50
2018-05-13T05:22:24.443Z,298.13
2018-05-13T05:23:24.422Z,303.75
2018-05-13T05:24:24.436Z,303.75
2018-05-13T05:25:24.515Z,303.75
2018-05-13T05:26:24.475Z,303.75
2018-05-13T05:27:24.497Z,303.75
2018-05-13T05:28:24.616Z,303.75
2018-05-13T05:29:24.542Z,309.38
2018-05-13T05:30:24.556Z,320.63
2018-05-13T05:31:24.579Z,331.88
2018-05-13T05:32:24.672Z,343.13
2018-05-13T05:33:24.687Z,348.75
2018-05-13T05:34:24.650Z,354.38
2018-05-13T05:35:24.666Z,360.00
2018-05-13T05:36:24.783Z,365.63
2018-05-13T05:37:24.702Z,376.88
2018-05-13T05:38:24.729Z,393.75
2018-05-13T05:39:24.759Z,405.00
2018-05-13T05:40:24.764Z,410.63
2018-05-13T05:41:24.842Z,416.25
2018-05-13T05:42:24.819Z,421.88
2018-05-13T05:43:24.823Z,421.88
2018-05-13T05:44:24.850Z,433.13
2018-05-13T05:45:24.968Z,438.75
2018-05-13T05:46:24.892Z,450.00
2018-05-13T05:47:24.908Z,466.88
2018-05-13T05:48:24.954Z,483.75
2018-05-13T05:49:24.962Z,495.00
2018-05-13T05:50:25.136Z,483.75
2018-05-13T05:51:25.066Z,483.75
2018-05-13T05:52:25.023Z,483.75
2018-05-13T05:53:25.086Z,489.38
2018-05-13T05:54:25.063Z,495.00
2018-05-13T05:55:25.079Z,511.88
2018-05-13T05:56:25.099Z,523.13
2018-05-13T05:57:25.120Z,528.75
2018-05-13T05:58:25.140Z,545.63
2018-05-13T05:59:25.248Z,573.75
2018-05-13T06:00:25.202Z,658.13
2018-05-13T06:01:25.207Z,607.50
2018-05-13T06:02:25.232Z,585.00
2018-05-13T06:03:25.351Z,573.75
2018-05-13T06:04:25.273Z,568.13
2018-05-13T06:05:25.305Z,590.63
2018-05-13T06:06:25.338Z,624.38
2018-05-13T06:07:25.382Z,1029.38
2018-05-13T06:08:25.365Z,658.13
2018-05-13T06:09:25.540Z,900.00
2018-05-13T06:10:25.486Z,1001.25
2018-05-13T06:11:25.424Z,630.00
2018-05-13T06:12:25.508Z,630.00
2018-05-13T06:13:25.497Z,630.00
2018-05-13T06:14:25.499Z,618.75
2018-05-13T06:15:25.519Z,635.63
2018-05-13T06:16:25.561Z,883.13
2018-05-13T06:17:25.900Z,1951.88
2018-05-13T06:18:25.581Z,680.63
2018-05-13T06:19:25.625Z,675.00
2018-05-13T06:20:25.633Z,658.13
2018-05-13T06:21:25.649Z,663.75
2018-05-13T06:22:25.759Z,1006.88
2018-05-13T06:23:25.707Z,894.38
2018-05-13T06:24:25.727Z,1726.88
2018-05-13T06:25:25.781Z,1963.13
2018-05-13T06:26:25.766Z,1912.50
2018-05-13T06:27:25.797Z,1906.88
2018-05-13T06:28:25.820Z,1946.25
2018-05-13T06:29:25.842Z,2098.13
2018-05-13T06:30:25.922Z,2137.50
2018-05-13T06:31:25.890Z,2165.63
2018-05-13T06:32:25.992Z,2199.38
2018-05-13T06:33:25.942Z,2148.75
2018-05-13T06:34:25.972Z,2041.88
2018-05-13T06:35:26.000Z,2109.38
2018-05-13T06:36:26.052Z,1985.63
2018-05-13T06:37:26.043Z,2103.75
2018-05-13T06:38:26.071Z,1974.38
2018-05-13T06:39:26.100Z,1473.75
2018-05-13T06:40:26.125Z,2064.38
2018-05-13T06:41:26.224Z,1833.75
2018-05-13T06:42:26.186Z,1996.88
2018-05-13T06:43:26.263Z,2092.50
2018-05-13T06:44:26.240Z,1822.50
2018-05-13T06:45:26.268Z,1597.50
2018-05-13T06:46:26.354Z,916.88
2018-05-13T06:47:26.327Z,748.13
2018-05-13T06:48:26.376Z,675.00
2018-05-13T06:49:26.417Z,663.75
2018-05-13T06:50:26.401Z,675.00
2018-05-13T06:51:26.522Z,714.38
2018-05-13T06:52:26.530Z,905.63
2018-05-13T06:53:26.490Z,720.00
2018-05-13T06:54:26.539Z,736.88
2018-05-13T06:55:26.544Z,776.25
2018-05-13T06:56:26.645Z,1035.00
2018-05-13T06:57:26.634Z,821.25
2018-05-13T06:58:26.625Z,838.13
2018-05-13T06:59:26.828Z,855.00
2018-05-13T07:00:26.666Z,905.63
2018-05-13T07:01:26.697Z,911.25
2018-05-13T07:02:26.855Z,961.88
2018-05-13T07:03:26.820Z,1918.13
2018-05-13T07:04:26.937Z,2283.75
2018-05-13T07:05:26.807Z,2205.00
2018-05-13T07:06:26.846Z,2424.38
2018-05-13T07:07:26.864Z,2480.63
2018-05-13T07:08:26.990Z,2469.38
2018-05-13T07:09:26.918Z,2452.50
2018-05-13T07:10:26.960Z,2649.38
2018-05-13T07:11:27.022Z,2615.63
2018-05-13T07:12:26.994Z,2475.00
2018-05-13T07:13:27.017Z,2565.00
2018-05-13T07:14:27.046Z,2660.63
2018-05-13T07:15:27.074Z,2418.75
2018-05-13T07:16:27.153Z,2227.50
2018-05-13T07:17:27.133Z,2154.38
2018-05-13T07:18:27.165Z,2154.38
2018-05-13T07:19:27.252Z,1935.00
2018-05-13T07:20:27.227Z,1946.25
2018-05-13T07:21:27.371Z,1670.63
2018-05-13T07:22:27.268Z,1366.88
2018-05-13T07:23:27.368Z,1597.50
2018-05-13T07:24:27.329Z,1687.50
2018-05-13T07:25:27.375Z,1665.00
2018-05-13T07:26:27.385Z,2030.63
2018-05-13T07:27:27.417Z,2070.00
2018-05-13T07:28:27.533Z,2227.50
2018-05-13T07:29:27.471Z,2221.88
2018-05-13T07:30:27.497Z,1935.00
2018-05-13T07:31:27.544Z,1760.63
2018-05-13T07:32:27.551Z,1833.75
2018-05-13T07:33:27.594Z,1603.13
2018-05-13T07:34:27.632Z,1659.38
2018-05-13T07:35:27.693Z,1670.63
2018-05-13T07:36:27.749Z,1710.00
2018-05-13T07:37:27.715Z,1906.88
2018-05-13T07:38:27.747Z,1856.25
2018-05-13T07:39:27.824Z,1856.25
2018-05-13T07:40:27.784Z,1845.00
2018-05-13T07:41:27.834Z,1861.88
2018-05-13T07:42:27.843Z,2047.50
2018-05-13T07:43:28.043Z,2019.38
2018-05-13T07:44:27.904Z,1816.88
2018-05-13T07:45:27.950Z,2036.25
2018-05-13T07:46:27.958Z,2210.63
2018-05-13T07:47:27.994Z,2205.00
2018-05-13T07:48:28.068Z,2278.13
2018-05-13T07:49:28.065Z,2311.88
2018-05-13T07:50:28.111Z,2413.13
2018-05-13T07:51:28.135Z,2401.88
2018-05-13T07:52:28.142Z,2092.50
2018-05-13T07:53:28.161Z,2160.00
2018-05-13T07:54:28.234Z,2233.13
2018-05-13T07:55:28.221Z,2019.38
2018-05-13T07:56:28.248Z,1715.63
2018-05-13T07:57:28.277Z,1738.13
2018-05-13T07:58:28.313Z,1800.00
2018-05-13T07:59:28.417Z,1704.38
2018-05-13T08:00:28.369Z,1603.13
2018-05-13T08:01:28.429Z,1608.75
2018-05-13T08:02:28.432Z,1771.88
2018-05-13T08:03:28.506Z,1642.50
2018-05-13T08:04:28.515Z,1693.13
2018-05-13T08:05:28.515Z,1828.13
2018-05-13T08:06:28.548Z,1816.88
2018-05-13T08:07:28.608Z,1558.13
2018-05-13T08:08:28.612Z,1822.50
2018-05-13T08:09:28.638Z,2041.88
2018-05-13T08:10:28.669Z,1845.00
2018-05-13T08:11:28.699Z,1867.50
2018-05-13T08:12:28.724Z,2081.25
2018-05-13T08:13:28.753Z,2131.88
2018-05-13T08:14:28.932Z,2199.38
2018-05-13T08:15:28.819Z,2154.38
2018-05-13T08:16:28.848Z,2092.50
2018-05-13T08:17:28.878Z,2036.25
2018-05-13T08:18:28.972Z,1996.88
2018-05-13T08:19:28.998Z,2053.13
2018-05-13T08:20:29.042Z,2036.25
2018-05-13T08:21:28.987Z,2086.88
2018-05-13T08:22:29.127Z,1974.38
2018-05-13T08:23:29.088Z,1929.38
2018-05-13T08:24:29.188Z,1980.00
2018-05-13T08:25:29.298Z,1963.13
2018-05-13T08:26:29.144Z,1906.88
2018-05-13T08:27:29.167Z,1935.00
2018-05-13T08:28:29.239Z,1248.75
2018-05-13T08:29:29.228Z,748.13
2018-05-13T08:30:29.337Z,720.00
2018-05-13T08:31:29.286Z,703.13
2018-05-13T08:32:29.310Z,691.88
2018-05-13T08:33:29.332Z,686.25
2018-05-13T08:34:29.369Z,675.00
2018-05-13T08:35:29.392Z,669.38
2018-05-13T08:36:29.421Z,663.75
2018-05-13T08:37:29.514Z,663.75
2018-05-13T08:38:29.481Z,652.50
2018-05-13T08:39:29.521Z,646.88
2018-05-13T08:40:29.522Z,641.25
2018-05-13T08:41:29.554Z,635.63
2018-05-13T08:42:29.581Z,630.00
2018-05-13T08:43:29.623Z,624.38
2018-05-13T08:44:29.666Z,618.75
2018-05-13T08:45:29.676Z,618.75
2018-05-13T08:46:29.711Z,618.75
2018-05-13T08:47:29.731Z,613.13
2018-05-13T08:48:29.840Z,613.13
2018-05-13T08:49:29.770Z,613.13
2018-05-13T08:50:29.798Z,613.13
2018-05-13T08:51:29.887Z,601.88
2018-05-13T08:52:29.927Z,601.88
2018-05-13T08:53:29.994Z,601.88
2018-05-13T08:54:29.898Z,601.88
2018-05-13T08:55:30.053Z,601.88
2018-05-13T08:56:29.949Z,596.25
2018-05-13T08:57:29.977Z,596.25
2018-05-13T08:58:30.008Z,590.63
2018-05-13T08:59:30.034Z,590.63
2018-05-13T09:00:30.051Z,585.00
2018-05-13T09:01:30.079Z,579.38
2018-05-13T09:02:30.209Z,573.75
2018-05-13T09:03:30.142Z,573.75
2018-05-13T09:04:30.169Z,562.50
2018-05-13T09:05:30.232Z,551.25
2018-05-13T09:06:30.216Z,540.00
2018-05-13T09:07:30.230Z,528.75
2018-05-13T09:08:30.352Z,517.50
2018-05-13T09:09:30.287Z,511.88
2018-05-13T09:10:30.384Z,511.88
2018-05-13T09:11:30.334Z,511.88
2018-05-13T09:12:30.372Z,511.88
2018-05-13T09:13:30.389Z,523.13
2018-05-13T09:14:30.512Z,528.75
2018-05-13T09:15:30.436Z,540.00
2018-05-13T09:16:30.469Z,545.63
2018-05-13T09:17:30.538Z,551.25
2018-05-13T09:18:30.518Z,551.25
2018-05-13T09:19:30.543Z,551.25
2018-05-13T09:20:30.706Z,551.25
2018-05-13T09:21:30.591Z,551.25
2018-05-13T09:22:30.621Z,545.63
2018-05-13T09:23:30.642Z,540.00
2018-05-13T09:24:30.662Z,540.00
2018-05-13T09:25:30.689Z,540.00
2018-05-13T09:26:30.742Z,540.00
2018-05-13T09:27:30.795Z,540.00
2018-05-13T09:28:30.765Z,540.00
2018-05-13T09:29:30.797Z,545.63
2018-05-13T09:30:30.868Z,540.00
2018-05-13T09:31:30.877Z,540.00
2018-05-13T09:32:30.870Z,534.38
2018-05-13T09:33:30.894Z,534.38
2018-05-13T09:34:30.919Z,528.75
2018-05-13T09:35:30.956Z,523.13
2018-05-13T09:36:30.973Z,523.13
2018-05-13T09:37:31.078Z,511.88
2018-05-13T09:38:31.023Z,495.00
2018-05-13T09:39:31.062Z,478.13
2018-05-13T09:40:31.130Z,461.25
2018-05-13T09:41:31.152Z,461.25
2018-05-13T09:42:31.118Z,472.50
2018-05-13T09:43:31.149Z,483.75
2018-05-13T09:44:31.174Z,500.63
2018-05-13T09:45:31.215Z,500.63
2018-05-13T09:46:31.308Z,506.25
2018-05-13T09:47:31.251Z,511.88
2018-05-13T09:48:31.272Z,500.63
2018-05-13T09:49:31.296Z,489.38
2018-05-13T09:50:31.340Z,478.13
2018-05-13T09:51:31.349Z,489.38
2018-05-13T09:52:31.425Z,495.00
2018-05-13T09:53:31.400Z,495.00
2018-05-13T09:54:31.433Z,455.63
2018-05-13T09:55:31.455Z,506.25
2018-05-13T09:56:31.562Z,466.88
2018-05-13T09:57:31.589Z,478.13
2018-05-13T09:58:31.564Z,489.38
2018-05-13T09:59:31.563Z,540.00
2018-05-13T10:00:31.578Z,551.25
2018-05-13T10:01:31.623Z,562.50
2018-05-13T10:02:31.626Z,562.50
2018-05-13T10:03:31.654Z,528.75
2018-05-13T10:04:31.783Z,556.88
2018-05-13T10:05:31.718Z,562.50
2018-05-13T10:06:31.731Z,596.25
2018-05-13T10:07:31.756Z,624.38
2018-05-13T10:08:31.846Z,646.88
2018-05-13T10:09:31.894Z,663.75
2018-05-13T10:10:31.841Z,646.88
2018-05-13T10:11:31.893Z,641.25
2018-05-13T10:12:31.966Z,646.88
2018-05-13T10:13:31.905Z,624.38
2018-05-13T10:14:32.023Z,618.75
2018-05-13T10:15:31.968Z,613.13
2018-05-13T10:16:32.044Z,607.50
2018-05-13T10:17:32.017Z,596.25
2018-05-13T10:18:32.084Z,545.63
2018-05-13T10:19:32.116Z,511.88
2018-05-13T10:20:32.083Z,556.88
2018-05-13T10:21:32.109Z,585.00
2018-05-13T10:22:32.135Z,601.88
2018-05-13T10:23:32.159Z,618.75
2018-05-13T10:24:32.189Z,613.13
2018-05-13T10:25:32.211Z,562.50
2018-05-13T10:26:32.264Z,590.63
2018-05-13T10:27:32.267Z,585.00
2018-05-13T10:28:32.296Z,545.63
2018-05-13T10:29:32.318Z,590.63
2018-05-13T10:30:32.369Z,556.88
2018-05-13T10:31:32.374Z,545.63
2018-05-13T10:32:32.391Z,551.25
2018-05-13T10:33:32.485Z,540.00
2018-05-13T10:34:32.456Z,523.13
2018-05-13T10:35:32.468Z,523.13
2018-05-13T10:36:32.495Z,500.63
2018-05-13T10:37:32.530Z,478.13
2018-05-13T10:38:32.545Z,489.38
2018-05-13T10:39:32.615Z,483.75
2018-05-13T10:40:32.697Z,466.88
2018-05-13T10:41:32.673Z,472.50
2018-05-13T10:42:32.707Z,478.13
2018-05-13T10:43:32.686Z,478.13
2018-05-13T10:44:32.745Z,489.38
2018-05-13T10:45:32.884Z,489.38
2018-05-13T10:46:32.750Z,500.63
2018-05-13T10:47:32.774Z,489.38
2018-05-13T10:48:32.811Z,483.75
2018-05-13T10:49:32.829Z,472.50
2018-05-13T10:50:32.855Z,427.50
2018-05-13T10:51:32.883Z,427.50
2018-05-13T10:52:32.912Z,455.63
2018-05-13T10:53:32.941Z,466.88
2018-05-13T10:54:33.033Z,416.25
2018-05-13T10:55:33.047Z,405.00
2018-05-13T10:56:33.024Z,376.88
2018-05-13T10:57:33.151Z,371.25
2018-05-13T10:58:33.094Z,360.00
2018-05-13T10:59:33.280Z,360.00
2018-05-13T11:00:33.151Z,405.00
2018-05-13T11:01:33.179Z,405.00
2018-05-13T11:02:33.284Z,433.13
2018-05-13T11:03:33.249Z,506.25
2018-05-13T11:04:33.211Z,495.00
2018-05-13T11:05:33.319Z,534.38
2018-05-13T11:06:33.274Z,545.63
2018-05-13T11:07:33.382Z,461.25
2018-05-13T11:08:33.375Z,427.50
2018-05-13T11:09:33.347Z,405.00
2018-05-13T11:10:33.435Z,399.38
2018-05-13T11:11:33.421Z,393.75
2018-05-13T11:12:33.409Z,393.75
2018-05-13T11:13:33.471Z,416.25
2018-05-13T11:14:33.459Z,438.75
2018-05-13T11:15:33.504Z,478.13
2018-05-13T11:16:33.512Z,495.00
2018-05-13T11:17:33.529Z,556.88
2018-05-13T11:18:33.559Z,528.75
2018-05-13T11:19:33.585Z,517.50
2018-05-13T11:20:33.614Z,562.50
2018-05-13T11:21:33.645Z,545.63
2018-05-13T11:22:33.659Z,601.88
2018-05-13T11:23:33.758Z,573.75
2018-05-13T11:24:33.704Z,568.13
2018-05-13T11:25:33.731Z,556.88
2018-05-13T11:26:33.756Z,534.38
2018-05-13T11:27:33.872Z,511.88
2018-05-13T11:28:33.801Z,511.88
2018-05-13T11:29:33.844Z,534.38
2018-05-13T11:30:33.859Z,495.00
2018-05-13T11:31:33.881Z,433.13
2018-05-13T11:32:33.911Z,427.50
2018-05-13T11:33:33.939Z,450.00
2018-05-13T11:34:33.966Z,399.38
2018-05-13T11:35:33.983Z,421.88
2018-05-13T11:36:34.023Z,438.75
2018-05-13T11:37:34.051Z,450.00
2018-05-13T11:38:34.138Z,461.25
2018-05-13T11:39:34.092Z,461.25
2018-05-13T11:40:34.106Z,455.63
2018-05-13T11:41:34.131Z,433.13
2018-05-13T11:42:34.168Z,410.63
2018-05-13T11:43:34.183Z,405.00
2018-05-13T11:44:34.209Z,410.63
2018-05-13T11:45:34.237Z,421.88
2018-05-13T11:46:34.264Z,433.13
2018-05-13T11:47:34.380Z,433.13
2018-05-13T11:48:34.323Z,427.50
2018-05-13T11:49:34.344Z,421.88
2018-05-13T11:50:34.485Z,427.50
2018-05-13T11:51:34.385Z,427.50
2018-05-13T11:52:34.409Z,455.63
2018-05-13T11:53:34.645Z,427.50
2018-05-13T11:54:34.463Z,433.13
2018-05-13T11:55:34.485Z,444.38
2018-05-13T11:56:34.534Z,450.00
2018-05-13T11:57:34.728Z,461.25
2018-05-13T11:58:34.672Z,472.50
2018-05-13T11:59:34.597Z,483.75
2018-05-13T12:00:34.607Z,472.50
2018-05-13T12:01:34.641Z,438.75
2018-05-13T12:02:34.706Z,427.50
2018-05-13T12:03:34.775Z,433.13
2018-05-13T12:04:34.710Z,450.00
2018-05-13T12:05:34.740Z,472.50
2018-05-13T12:06:34.895Z,472.50
2018-05-13T12:07:34.839Z,483.75
2018-05-13T12:08:34.805Z,540.00
2018-05-13T12:09:34.886Z,540.00
2018-05-13T12:10:34.883Z,506.25
2018-05-13T12:11:34.905Z,523.13
2018-05-13T12:12:34.904Z,517.50
2018-05-13T12:13:34.928Z,506.25
2018-05-13T12:14:34.955Z,478.13
2018-05-13T12:15:34.994Z,450.00
2018-05-13T12:16:35.003Z,450.00
2018-05-13T12:17:35.166Z,450.00
2018-05-13T12:18:35.058Z,450.00
2018-05-13T12:19:35.083Z,466.88
2018-05-13T12:20:35.103Z,483.75
2018-05-13T12:21:35.129Z,495.00
2018-05-13T12:22:35.162Z,500.63
2018-05-13T12:23:35.181Z,495.00
2018-05-13T12:24:35.431Z,500.63
2018-05-13T12:25:35.231Z,506.25
2018-05-13T12:26:35.260Z,511.88
2018-05-13T12:27:35.466Z,511.88
2018-05-13T12:28:35.310Z,511.88
2018-05-13T12:29:35.353Z,506.25
2018-05-13T12:30:35.411Z,500.63
2018-05-13T12:31:35.515Z,506.25
2018-05-13T12:32:35.494Z,568.13
2018-05-13T12:33:35.437Z,523.13
2018-05-13T12:34:35.456Z,534.38
2018-05-13T12:35:35.485Z,540.00
2018-05-13T12:36:35.512Z,545.63
2018-05-13T12:37:35.536Z,551.25
2018-05-13T12:38:35.560Z,562.50